Rawson, North Dakota
Current Conditions -  °F | °C
As of 12:52 PM on Friday 31 Oct 2014 (Local Time) from KISN Reporting Station
Clear Clear  
Wind Chill: 31°   Ceiling: Unl
Heat Index: 39°   Visibility: 10mi
Dew Point: 27°   Wind: 15mph
Humidity: 62%   Direction: 160°SSE
Pressure: 30.16"   Gusts: 26mph
Location:  47.8581°N, 103.643°W
Report Text: KISN 311752Z AUTO 16013G23KT 10SM CLR 04/M03 A3016 RMK AO2 SLP237 T00391028 10044 21011 58035
Loading
Personal Weather Stations






























Interactive Weather Map
Tropical Storm Tracking
New forecast layout! Learn more

10-Day Weather Forecast

Advertisements
Track Severe Weather on mobile